sensor_id;sensor_type;location;lat;lon;timestamp;P1;durP1;ratioP1;P2;durP2;ratioP2
67164;SDS011;54093;50.014;19.984;2023-06-14T00:05:46;14.95;;;11.85;;
67164;SDS011;54093;50.014;19.984;2023-06-14T00:15:07;12.38;;;9.65;;
67164;SDS011;54093;50.014;19.984;2023-06-14T00:24:30;7.88;;;6.20;;
67164;SDS011;54093;50.014;19.984;2023-06-14T00:33:51;7.28;;;5.43;;
67164;SDS011;54093;50.014;19.984;2023-06-14T00:43:11;9.77;;;8.85;;
67164;SDS011;54093;50.014;19.984;2023-06-14T00:52:32;9.98;;;8.95;;
67164;SDS011;54093;50.014;19.984;2023-06-14T01:01:53;12.13;;;10.18;;
67164;SDS011;54093;50.014;19.984;2023-06-14T01:11:25;14.65;;;8.77;;
67164;SDS011;54093;50.014;19.984;2023-06-14T01:20:52;8.48;;;7.78;;
67164;SDS011;54093;50.014;19.984;2023-06-14T01:30:15;11.65;;;7.63;;
67164;SDS011;54093;50.014;19.984;2023-06-14T01:39:37;12.88;;;9.30;;
67164;SDS011;54093;50.014;19.984;2023-06-14T01:48:58;17.48;;;9.57;;
67164;SDS011;54093;50.014;19.984;2023-06-14T01:58:19;11.50;;;7.65;;
67164;SDS011;54093;50.014;19.984;2023-06-14T02:07:41;10.85;;;7.18;;
67164;SDS011;54093;50.014;19.984;2023-06-14T02:17:02;11.13;;;7.43;;
67164;SDS011;54093;50.014;19.984;2023-06-14T02:26:23;9.98;;;7.75;;
67164;SDS011;54093;50.014;19.984;2023-06-14T02:35:44;8.52;;;7.72;;
67164;SDS011;54093;50.014;19.984;2023-06-14T02:45:05;10.55;;;7.38;;
67164;SDS011;54093;50.014;19.984;2023-06-14T02:54:26;15.38;;;9.25;;
67164;SDS011;54093;50.014;19.984;2023-06-14T03:03:47;8.25;;;7.32;;
67164;SDS011;54093;50.014;19.984;2023-06-14T03:13:08;10.88;;;8.05;;
67164;SDS011;54093;50.014;19.984;2023-06-14T03:22:29;9.93;;;7.63;;
67164;SDS011;54093;50.014;19.984;2023-06-14T03:32:00;15.05;;;8.30;;
67164;SDS011;54093;50.014;19.984;2023-06-14T03:41:21;18.70;;;8.18;;
67164;SDS011;54093;50.014;19.984;2023-06-14T03:50:42;16.55;;;8.60;;
67164;SDS011;54093;50.014;19.984;2023-06-14T04:00:05;13.73;;;7.60;;
67164;SDS011;54093;50.014;19.984;2023-06-14T04:09:26;11.77;;;7.65;;
67164;SDS011;54093;50.014;19.984;2023-06-14T04:18:47;16.23;;;8.52;;
67164;SDS011;54093;50.014;19.984;2023-06-14T04:28:12;16.67;;;7.70;;
67164;SDS011;54093;50.014;19.984;2023-06-14T04:37:36;14.98;;;8.50;;
67164;SDS011;54093;50.014;19.984;2023-06-14T04:47:00;19.10;;;10.45;;
67164;SDS011;54093;50.014;19.984;2023-06-14T04:56:21;26.38;;;9.70;;
67164;SDS011;54093;50.014;19.984;2023-06-14T05:05:42;15.18;;;9.57;;
67164;SDS011;54093;50.014;19.984;2023-06-14T05:15:03;20.17;;;9.00;;
67164;SDS011;54093;50.014;19.984;2023-06-14T05:24:25;24.77;;;10.88;;
67164;SDS011;54093;50.014;19.984;2023-06-14T05:33:46;15.32;;;8.90;;
67164;SDS011;54093;50.014;19.984;2023-06-14T05:43:07;20.35;;;9.80;;
67164;SDS011;54093;50.014;19.984;2023-06-14T05:52:27;16.30;;;10.25;;
67164;SDS011;54093;50.014;19.984;2023-06-14T06:01:50;19.17;;;9.40;;
67164;SDS011;54093;50.014;19.984;2023-06-14T06:11:15;15.60;;;8.25;;
67164;SDS011;54093;50.014;19.984;2023-06-14T06:20:36;15.23;;;8.47;;
67164;SDS011;54093;50.014;19.984;2023-06-14T06:29:57;18.88;;;9.05;;
67164;SDS011;54093;50.014;19.984;2023-06-14T06:39:18;21.10;;;9.80;;
67164;SDS011;54093;50.014;19.984;2023-06-14T06:48:39;18.00;;;8.52;;
67164;SDS011;54093;50.014;19.984;2023-06-14T06:58:00;13.13;;;9.13;;
67164;SDS011;54093;50.014;19.984;2023-06-14T07:07:21;13.80;;;8.05;;
67164;SDS011;54093;50.014;19.984;2023-06-14T07:16:42;17.27;;;8.85;;
67164;SDS011;54093;50.014;19.984;2023-06-14T07:26:03;13.43;;;8.45;;
67164;SDS011;54093;50.014;19.984;2023-06-14T07:35:24;18.45;;;8.65;;
67164;SDS011;54093;50.014;19.984;2023-06-14T07:44:45;11.77;;;7.18;;
67164;SDS011;54093;50.014;19.984;2023-06-14T07:54:06;7.72;;;6.55;;
67164;SDS011;54093;50.014;19.984;2023-06-14T08:03:28;4.05;;;3.75;;
67164;SDS011;54093;50.014;19.984;2023-06-14T08:12:49;3.63;;;3.33;;
67164;SDS011;54093;50.014;19.984;2023-06-14T08:22:10;3.30;;;3.00;;
67164;SDS011;54093;50.014;19.984;2023-06-14T08:31:33;2.20;;;2.05;;
67164;SDS011;54093;50.014;19.984;2023-06-14T08:40:56;1.65;;;1.55;;
67164;SDS011;54093;50.014;19.984;2023-06-14T08:50:21;2.03;;;1.85;;
67164;SDS011;54093;50.014;19.984;2023-06-14T08:59:47;2.40;;;2.22;;
67164;SDS011;54093;50.014;19.984;2023-06-14T09:09:13;2.20;;;2.10;;
67164;SDS011;54093;50.014;19.984;2023-06-14T09:18:35;2.70;;;2.60;;
67164;SDS011;54093;50.014;19.984;2023-06-14T09:27:59;2.95;;;2.70;;
67164;SDS011;54093;50.014;19.984;2023-06-14T09:37:30;2.97;;;2.85;;
67164;SDS011;54093;50.014;19.984;2023-06-14T09:46:52;5.00;;;3.17;;
67164;SDS011;54093;50.014;19.984;2023-06-14T09:56:22;4.20;;;3.80;;
67164;SDS011;54093;50.014;19.984;2023-06-14T10:05:47;6.07;;;4.28;;
67164;SDS011;54093;50.014;19.984;2023-06-14T10:15:12;4.07;;;3.78;;
67164;SDS011;54093;50.014;19.984;2023-06-14T10:24:43;4.40;;;4.10;;
67164;SDS011;54093;50.014;19.984;2023-06-14T10:34:06;3.70;;;3.50;;
67164;SDS011;54093;50.014;19.984;2023-06-14T10:43:27;3.72;;;3.53;;
67164;SDS011;54093;50.014;19.984;2023-06-14T10:52:48;3.65;;;3.45;;
67164;SDS011;54093;50.014;19.984;2023-06-14T11:02:20;4.78;;;3.45;;
67164;SDS011;54093;50.014;19.984;2023-06-14T11:12:06;4.90;;;4.57;;
67164;SDS011;54093;50.014;19.984;2023-06-14T11:21:34;13.23;;;4.10;;
67164;SDS011;54093;50.014;19.984;2023-06-14T11:31:00;6.47;;;5.97;;
67164;SDS011;54093;50.014;19.984;2023-06-14T11:40:25;7.18;;;4.97;;
67164;SDS011;54093;50.014;19.984;2023-06-14T11:49:47;5.78;;;5.28;;
67164;SDS011;54093;50.014;19.984;2023-06-14T11:59:08;4.88;;;4.57;;
67164;SDS011;54093;50.014;19.984;2023-06-14T12:08:32;6.32;;;4.60;;
67164;SDS011;54093;50.014;19.984;2023-06-14T12:17:59;4.35;;;4.10;;
67164;SDS011;54093;50.014;19.984;2023-06-14T12:27:21;6.15;;;5.65;;
67164;SDS011;54093;50.014;19.984;2023-06-14T12:36:44;5.13;;;4.82;;
67164;SDS011;54093;50.014;19.984;2023-06-14T12:46:06;3.22;;;3.00;;
67164;SDS011;54093;50.014;19.984;2023-06-14T12:55:27;4.30;;;3.13;;
67164;SDS011;54093;50.014;19.984;2023-06-14T13:04:48;4.43;;;2.78;;
67164;SDS011;54093;50.014;19.984;2023-06-14T13:14:09;3.17;;;2.97;;
67164;SDS011;54093;50.014;19.984;2023-06-14T13:23:30;3.08;;;2.88;;
67164;SDS011;54093;50.014;19.984;2023-06-14T13:32:51;2.58;;;2.47;;
67164;SDS011;54093;50.014;19.984;2023-06-14T13:42:12;2.60;;;2.50;;
67164;SDS011;54093;50.014;19.984;2023-06-14T13:51:33;3.90;;;2.75;;
67164;SDS011;54093;50.014;19.984;2023-06-14T14:00:55;2.88;;;2.67;;
67164;SDS011;54093;50.014;19.984;2023-06-14T14:10:17;2.60;;;2.50;;
67164;SDS011;54093;50.014;19.984;2023-06-14T14:19:40;3.35;;;2.88;;
67164;SDS011;54093;50.014;19.984;2023-06-14T14:29:01;3.33;;;3.05;;
67164;SDS011;54093;50.014;19.984;2023-06-14T14:38:23;2.72;;;2.53;;
67164;SDS011;54093;50.014;19.984;2023-06-14T14:47:44;3.22;;;2.85;;
67164;SDS011;54093;50.014;19.984;2023-06-14T14:57:05;2.60;;;2.50;;
67164;SDS011;54093;50.014;19.984;2023-06-14T15:06:27;2.30;;;2.20;;
67164;SDS011;54093;50.014;19.984;2023-06-14T15:15:48;3.28;;;2.92;;
67164;SDS011;54093;50.014;19.984;2023-06-14T15:25:09;2.20;;;2.10;;
67164;SDS011;54093;50.014;19.984;2023-06-14T15:34:30;2.50;;;2.40;;
67164;SDS011;54093;50.014;19.984;2023-06-14T15:43:50;2.80;;;2.60;;
67164;SDS011;54093;50.014;19.984;2023-06-14T15:53:12;2.33;;;2.22;;
67164;SDS011;54093;50.014;19.984;2023-06-14T16:02:33;5.82;;;2.33;;
67164;SDS011;54093;50.014;19.984;2023-06-14T16:11:54;2.45;;;2.30;;
67164;SDS011;54093;50.014;19.984;2023-06-14T16:21:15;4.13;;;3.22;;
67164;SDS011;54093;50.014;19.984;2023-06-14T16:30:36;2.97;;;2.67;;
67164;SDS011;54093;50.014;19.984;2023-06-14T16:39:57;2.17;;;2.08;;
67164;SDS011;54093;50.014;19.984;2023-06-14T16:49:18;4.53;;;1.90;;
67164;SDS011;54093;50.014;19.984;2023-06-14T16:58:39;3.10;;;2.50;;
67164;SDS011;54093;50.014;19.984;2023-06-14T17:08:00;2.45;;;2.33;;
67164;SDS011;54093;50.014;19.984;2023-06-14T17:17:21;1.77;;;1.73;;
67164;SDS011;54093;50.014;19.984;2023-06-14T17:26:44;1.70;;;1.60;;
67164;SDS011;54093;50.014;19.984;2023-06-14T17:36:05;4.03;;;1.55;;
67164;SDS011;54093;50.014;19.984;2023-06-14T17:45:26;1.77;;;1.73;;
67164;SDS011;54093;50.014;19.984;2023-06-14T17:54:47;1.70;;;1.60;;
67164;SDS011;54093;50.014;19.984;2023-06-14T18:04:08;1.60;;;1.60;;
67164;SDS011;54093;50.014;19.984;2023-06-14T18:13:29;1.58;;;1.58;;
67164;SDS011;54093;50.014;19.984;2023-06-14T18:22:50;1.77;;;1.67;;
67164;SDS011;54093;50.014;19.984;2023-06-14T18:32:11;1.90;;;1.80;;
67164;SDS011;54093;50.014;19.984;2023-06-14T18:41:32;2.13;;;2.03;;
67164;SDS011;54093;50.014;19.984;2023-06-14T18:50:53;5.57;;;2.08;;
67164;SDS011;54093;50.014;19.984;2023-06-14T19:00:15;2.45;;;2.30;;
67164;SDS011;54093;50.014;19.984;2023-06-14T19:09:36;2.22;;;2.13;;
67164;SDS011;54093;50.014;19.984;2023-06-14T19:18:58;3.83;;;2.85;;
67164;SDS011;54093;50.014;19.984;2023-06-14T19:28:19;5.07;;;2.20;;
67164;SDS011;54093;50.014;19.984;2023-06-14T19:37:42;2.70;;;2.20;;
67164;SDS011;54093;50.014;19.984;2023-06-14T19:47:03;2.40;;;2.30;;
67164;SDS011;54093;50.014;19.984;2023-06-14T19:56:24;2.35;;;2.15;;
67164;SDS011;54093;50.014;19.984;2023-06-14T20:05:48;3.63;;;2.40;;
67164;SDS011;54093;50.014;19.984;2023-06-14T20:15:11;2.50;;;2.30;;
67164;SDS011;54093;50.014;19.984;2023-06-14T20:24:32;11.50;;;2.35;;
67164;SDS011;54093;50.014;19.984;2023-06-14T20:33:53;3.88;;;2.45;;
67164;SDS011;54093;50.014;19.984;2023-06-14T20:43:14;3.53;;;3.10;;
67164;SDS011;54093;50.014;19.984;2023-06-14T20:52:35;9.48;;;2.45;;
67164;SDS011;54093;50.014;19.984;2023-06-14T21:01:56;2.47;;;2.38;;
67164;SDS011;54093;50.014;19.984;2023-06-14T21:11:16;3.13;;;2.92;;
67164;SDS011;54093;50.014;19.984;2023-06-14T21:20:37;3.08;;;2.88;;
67164;SDS011;54093;50.014;19.984;2023-06-14T21:29:58;2.42;;;2.33;;
67164;SDS011;54093;50.014;19.984;2023-06-14T21:39:19;2.65;;;2.53;;
67164;SDS011;54093;50.014;19.984;2023-06-14T21:48:40;2.38;;;2.28;;
67164;SDS011;54093;50.014;19.984;2023-06-14T21:58:01;2.80;;;2.60;;
67164;SDS011;54093;50.014;19.984;2023-06-14T22:07:22;2.63;;;2.42;;
67164;SDS011;54093;50.014;19.984;2023-06-14T22:16:43;3.25;;;2.63;;
67164;SDS011;54093;50.014;19.984;2023-06-14T22:26:07;3.20;;;2.90;;
67164;SDS011;54093;50.014;19.984;2023-06-14T22:35:29;4.72;;;4.43;;
67164;SDS011;54093;50.014;19.984;2023-06-14T22:44:50;3.25;;;3.05;;
67164;SDS011;54093;50.014;19.984;2023-06-14T22:54:11;3.45;;;3.15;;
67164;SDS011;54093;50.014;19.984;2023-06-14T23:03:32;3.50;;;3.30;;
67164;SDS011;54093;50.014;19.984;2023-06-14T23:12:53;2.95;;;2.85;;
67164;SDS011;54093;50.014;19.984;2023-06-14T23:22:15;3.28;;;3.08;;
67164;SDS011;54093;50.014;19.984;2023-06-14T23:31:36;3.20;;;3.00;;
67164;SDS011;54093;50.014;19.984;2023-06-14T23:40:59;3.08;;;2.88;;
67164;SDS011;54093;50.014;19.984;2023-06-14T23:50:22;3.88;;;3.63;;
67164;SDS011;54093;50.014;19.984;2023-06-14T23:59:42;3.55;;;3.20;;
